Terminal Aerodrome Forecast
Issued by NWS

Home | Current Version | Previous Version | Graphics & Text | Print | Product List | Glossary On
Versions: 1 2 3 4 5 6 7 8 9 10 11 12 13 14 15
000
FTUS43 KOAX 311700 RRA
TAFCDR
TAF
KCDR 311744Z 3118/0118 27005KT P6SM BKN100
     FM312100 30007KT P6SM VCTS BKN100CB
      TEMPO 3121/0101 6SM -TSRA OVC070CB
     FM010100 27005KT P6SM SCT150=

USA.gov is the U.S. government's official web portal to all federal, state and local government web resources and services.